Time;durP1;ratioP1;P1;durP2;ratioP2;P2;SDS_P1;SDS_P2;PMS_P1;PMS_P2;Temp;Humidity;BMP_temperature;BMP_pressure;BME280_temperature;BME280_humidity;BME280_pressure;Samples;Min_cycle;Max_cycle;Signal;HPM_P1;HPM_P2
2022/09/09 00:01:37;;;;;;;2.50;2.30;;;14.00;99.90;;;;;;8347680;28;20185;-67
2022/09/09 00:05:46;;;;;;;2.27;1.93;;;14.10;99.90;;;;;;8354189;28;20191;-67
2022/09/09 00:09:52;;;;;;;2.33;2.03;;;14.10;99.90;;;;;;8346776;28;20212;-67
2022/09/09 00:13:57;;;;;;;2.33;2.13;;;14.10;99.90;;;;;;8348110;28;20201;-67
2022/09/09 00:18:10;;;;;;;2.10;1.90;;;14.10;99.90;;;;;;8349767;28;20540;-67
2022/09/09 00:22:17;;;;;;;2.03;1.83;;;14.00;99.90;;;;;;8344687;28;20271;-67
2022/09/09 00:26:45;;;;;;;2.20;2.00;;;14.00;99.90;;;;;;8356025;28;20247;-67
2022/09/09 00:30:49;;;;;;;2.40;1.80;;;14.00;99.90;;;;;;8344490;28;20206;-67
2022/09/09 00:34:58;;;;;;;3.13;2.00;;;14.00;99.90;;;;;;8347977;28;20178;-66
2022/09/09 00:39:02;;;;;;;2.00;1.70;;;13.90;99.90;;;;;;8347591;28;20184;-67
2022/09/09 00:43:10;;;;;;;2.07;1.70;;;13.90;99.90;;;;;;8360402;28;20190;-67
2022/09/09 00:47:17;;;;;;;3.03;1.97;;;13.80;99.90;;;;;;8349470;28;20185;-67
2022/09/09 00:51:39;;;;;;;2.10;1.90;;;13.70;99.90;;;;;;8347896;28;20653;-67
2022/09/09 00:55:48;;;;;;;2.97;1.87;;;13.70;99.90;;;;;;8348744;28;20461;-67
2022/09/09 00:59:57;;;;;;;2.53;2.07;;;13.60;99.90;;;;;;8346044;28;20213;-67
2022/09/09 01:03:59;;;;;;;2.50;1.97;;;13.60;99.90;;;;;;8355282;28;20186;-67
2022/09/09 01:08:13;;;;;;;2.10;1.90;;;13.60;99.90;;;;;;8347297;28;20181;-67
2022/09/09 01:12:44;;;;;;;4.20;2.33;;;13.60;99.90;;;;;;8344297;28;20354;-67
2022/09/09 01:16:50;;;;;;;2.30;2.10;;;13.60;99.90;;;;;;8350643;28;20186;-67
2022/09/09 01:21:08;;;;;;;4.67;2.27;;;13.60;99.90;;;;;;8343204;28;20213;-67
2022/09/09 01:25:49;;;;;;;2.43;2.23;;;13.50;99.90;;;;;;8349398;28;20182;-67
2022/09/09 01:29:50;;;;;;;3.43;2.23;;;13.50;99.90;;;;;;8344658;28;20206;-68
2022/09/09 01:33:51;;;;;;;2.50;2.30;;;13.50;99.90;;;;;;8347197;28;20265;-67
2022/09/09 01:37:51;;;;;;;2.83;2.60;;;13.50;99.90;;;;;;8350176;28;20192;-68
2022/09/09 01:41:54;;;;;;;3.43;2.40;;;13.50;99.90;;;;;;8353105;28;20201;-67
2022/09/09 01:45:59;;;;;;;3.53;2.47;;;13.50;99.90;;;;;;8351760;28;20244;-68
2022/09/09 01:50:01;;;;;;;2.37;2.17;;;13.50;99.90;;;;;;8351104;28;20217;-67
2022/09/09 01:54:03;;;;;;;3.87;2.10;;;13.50;99.90;;;;;;8370535;28;20185;-67
2022/09/09 01:58:25;;;;;;;2.30;2.10;;;13.50;99.90;;;;;;8353408;28;20182;-67
2022/09/09 02:03:02;;;;;;;2.80;2.13;;;13.60;99.90;;;;;;8350394;28;20180;-67
2022/09/09 02:07:26;;;;;;;2.00;1.83;;;13.60;99.90;;;;;;8353044;28;20224;-67
2022/09/09 02:11:29;;;;;;;2.17;1.97;;;13.60;99.90;;;;;;8350567;28;20226;-67
2022/09/09 02:15:33;;;;;;;2.00;1.80;;;13.50;99.90;;;;;;8349379;28;20186;-67
2022/09/09 02:19:39;;;;;;;2.20;2.00;;;13.50;99.90;;;;;;8343964;28;20192;-68
2022/09/09 02:23:42;;;;;;;1.90;1.80;;;13.50;99.90;;;;;;8350210;28;20197;-67
2022/09/09 02:27:45;;;;;;;2.40;1.90;;;13.40;99.90;;;;;;8350160;28;20181;-67
2022/09/09 02:31:49;;;;;;;1.70;1.60;;;13.40;99.90;;;;;;8354262;28;20245;-67
2022/09/09 02:35:52;;;;;;;1.90;1.70;;;13.30;99.90;;;;;;8349591;28;20171;-68
2022/09/09 02:39:53;;;;;;;2.87;2.00;;;13.30;99.90;;;;;;8354036;28;20185;-67
2022/09/09 02:43:53;;;;;;;1.80;1.70;;;13.20;99.90;;;;;;8347845;28;20276;-67
2022/09/09 02:48:20;;;;;;;1.73;1.60;;;13.20;99.90;;;;;;8346711;28;20190;-69
2022/09/09 02:52:30;;;;;;;2.13;1.83;;;13.10;99.90;;;;;;8348368;28;20251;-68
2022/09/09 02:56:33;;;;;;;1.47;1.37;;;13.10;99.90;;;;;;8351362;28;20198;-67
2022/09/09 03:00:36;;;;;;;1.70;1.60;;;13.00;99.90;;;;;;8350779;28;20177;-67
2022/09/09 03:04:43;;;;;;;1.87;1.77;;;12.90;99.90;;;;;;8344563;28;20177;-67
2022/09/09 03:08:44;;;;;;;1.53;1.43;;;12.80;99.90;;;;;;8358318;28;20178;-68
2022/09/09 03:12:45;;;;;;;2.07;1.60;;;12.80;99.90;;;;;;8349435;28;20213;-67
2022/09/09 03:16:46;;;;;;;2.57;1.70;;;12.70;99.90;;;;;;8379816;28;20217;-67
2022/09/09 03:20:50;;;;;;;2.07;1.97;;;12.70;99.90;;;;;;8348305;28;20332;-67
2022/09/09 03:24:52;;;;;;;1.80;1.37;;;12.60;99.90;;;;;;8351890;28;20244;-67
2022/09/09 03:28:54;;;;;;;2.90;1.40;;;12.60;99.90;;;;;;8346457;28;20194;-68
2022/09/09 03:32:57;;;;;;;1.57;1.47;;;12.60;99.90;;;;;;8349450;28;20283;-66
2022/09/09 03:36:58;;;;;;;2.60;1.40;;;12.60;99.90;;;;;;8342986;28;20190;-67
2022/09/09 03:41:01;;;;;;;2.03;1.60;;;12.50;99.90;;;;;;8346138;28;20375;-67
2022/09/09 03:45:03;;;;;;;2.43;1.50;;;12.50;99.90;;;;;;8348349;28;20244;-67
2022/09/09 03:49:04;;;;;;;1.73;1.57;;;12.50;99.90;;;;;;8346034;28;20189;-68
2022/09/09 03:53:05;;;;;;;2.03;1.47;;;12.40;99.90;;;;;;8352036;28;20205;-67
2022/09/09 03:57:06;;;;;;;3.00;1.70;;;12.40;99.90;;;;;;8346292;28;20189;-67
2022/09/09 04:01:10;;;;;;;2.70;1.80;;;12.40;99.90;;;;;;8347763;28;20335;-67
2022/09/09 04:05:11;;;;;;;1.67;1.57;;;12.40;99.90;;;;;;8345868;28;20231;-67
2022/09/09 04:09:12;;;;;;;2.33;1.70;;;12.30;99.90;;;;;;8349023;28;20232;-67
2022/09/09 04:13:14;;;;;;;1.87;1.60;;;12.30;99.90;;;;;;8343768;28;20221;-67
2022/09/09 04:17:15;;;;;;;3.23;1.70;;;12.20;99.90;;;;;;8341299;28;20246;-67
2022/09/09 04:21:17;;;;;;;1.90;1.80;;;12.20;99.90;;;;;;8343528;28;20281;-67
2022/09/09 04:25:18;;;;;;;1.50;1.40;;;12.20;99.90;;;;;;8347691;28;20190;-71
2022/09/09 04:29:18;;;;;;;1.80;1.70;;;12.20;99.90;;;;;;8349577;28;20181;-67
2022/09/09 04:33:19;;;;;;;2.20;1.87;;;12.30;99.90;;;;;;8362443;28;20193;-67
2022/09/09 04:37:20;;;;;;;2.03;1.40;;;12.30;99.90;;;;;;8346701;28;20189;-67
2022/09/09 04:41:21;;;;;;;2.60;1.50;;;12.40;99.90;;;;;;8343004;28;20192;-67
2022/09/09 04:45:22;;;;;;;1.70;1.50;;;12.50;99.90;;;;;;8347003;28;20188;-67
2022/09/09 04:49:23;;;;;;;2.13;1.67;;;12.50;99.90;;;;;;8345519;28;20188;-67
2022/09/09 04:53:25;;;;;;;2.30;1.70;;;12.60;99.90;;;;;;8349018;28;20276;-67
2022/09/09 04:57:26;;;;;;;2.23;1.60;;;12.70;99.90;;;;;;8346868;28;20265;-67
2022/09/09 05:01:26;;;;;;;1.90;1.43;;;12.80;99.90;;;;;;8345401;28;20197;-67
2022/09/09 05:05:28;;;;;;;3.00;1.40;;;12.90;99.90;;;;;;8344927;28;20178;-67
2022/09/09 05:09:29;;;;;;;3.80;1.80;;;13.10;99.90;;;;;;8349508;28;20190;-67
2022/09/09 05:13:31;;;;;;;1.40;1.30;;;13.30;99.90;;;;;;8348696;28;20204;-67
2022/09/09 05:17:33;;;;;;;1.83;1.53;;;13.50;99.90;;;;;;8350518;28;20178;-68
2022/09/09 05:21:34;;;;;;;2.13;1.40;;;13.70;99.90;;;;;;8351525;28;20204;-68
2022/09/09 05:25:35;;;;;;;1.83;1.27;;;13.90;99.90;;;;;;8355237;28;20277;-67
2022/09/09 05:29:36;;;;;;;1.60;1.50;;;14.10;99.90;;;;;;8387505;28;20185;-68
2022/09/09 05:33:37;;;;;;;1.20;0.90;;;14.40;99.90;;;;;;8356485;28;20178;-69
2022/09/09 05:37:38;;;;;;;1.17;0.97;;;14.60;99.90;;;;;;8351722;28;20218;-68
2022/09/09 05:41:39;;;;;;;2.10;1.00;;;14.80;99.90;;;;;;8353849;28;20182;-68
2022/09/09 05:45:40;;;;;;;2.07;1.23;;;15.00;99.90;;;;;;8353467;28;20186;-69
2022/09/09 05:49:41;;;;;;;2.20;1.00;;;15.20;99.90;;;;;;8352508;28;20211;-68
2022/09/09 05:53:42;;;;;;;2.33;0.90;;;15.40;99.90;;;;;;8349084;28;20182;-68
2022/09/09 05:57:49;;;;;;;2.70;0.90;;;15.60;99.90;;;;;;8354710;28;20186;-68
2022/09/09 06:01:49;;;;;;;3.90;1.20;;;15.80;99.90;;;;;;8365197;28;20193;-68
2022/09/09 06:05:58;;;;;;;1.20;0.90;;;15.90;99.90;;;;;;8350595;28;20231;-68
2022/09/09 06:09:59;;;;;;;1.10;0.70;;;16.00;99.90;;;;;;8361190;28;20226;-67
2022/09/09 06:14:00;;;;;;;2.40;1.10;;;16.20;99.90;;;;;;8344866;28;20212;-68
2022/09/09 06:18:01;;;;;;;1.40;0.73;;;16.40;99.90;;;;;;8348618;28;20185;-68
2022/09/09 06:22:01;;;;;;;1.57;0.90;;;16.60;99.90;;;;;;8350170;28;20213;-72
2022/09/09 06:26:09;;;;;;;1.40;0.73;;;16.80;99.90;;;;;;8348111;28;20231;-68
2022/09/09 06:30:11;;;;;;;2.93;0.83;;;17.00;99.90;;;;;;8365157;28;20313;-68
2022/09/09 06:34:11;;;;;;;2.03;0.80;;;17.20;99.90;;;;;;8349318;28;20193;-68
2022/09/09 06:38:12;;;;;;;2.87;0.83;;;17.30;1.00;;;;;;8348735;28;20187;-69
2022/09/09 06:42:13;;;;;;;1.17;0.57;;;17.40;1.00;;;;;;8348083;28;20186;-68
2022/09/09 06:46:22;;;;;;;1.07;0.77;;;17.50;1.00;;;;;;8346768;28;20220;-68
2022/09/09 06:50:23;;;;;;;1.80;0.93;;;17.60;48.30;;;;;;8350493;28;20296;-68
2022/09/09 06:54:25;;;;;;;1.43;0.80;;;17.70;99.90;;;;;;8347251;28;20235;-68
2022/09/09 06:58:25;;;;;;;3.60;0.80;;;17.90;99.90;;;;;;8348659;28;20174;-69
2022/09/09 07:02:26;;;;;;;3.40;1.00;;;18.20;3.00;;;;;;8351014;28;20185;-68
2022/09/09 07:06:32;;;;;;;1.03;0.70;;;18.50;1.00;;;;;;8348874;28;20239;-69
2022/09/09 07:10:34;;;;;;;3.60;0.90;;;18.80;1.00;;;;;;8346702;28;20234;-68
2022/09/09 07:14:37;;;;;;;2.53;0.90;;;19.00;1.00;;;;;;8348027;28;20213;-69
2022/09/09 07:18:39;;;;;;;2.83;1.00;;;19.30;99.90;;;;;;8350375;28;20182;-69
2022/09/09 07:22:40;;;;;;;1.40;0.83;;;19.50;99.90;;;;;;8349108;28;20198;-68
2022/09/09 07:26:41;;;;;;;1.57;0.80;;;19.70;99.90;;;;;;8348413;28;20182;-68
2022/09/09 07:30:42;;;;;;;3.63;0.90;;;19.90;99.90;;;;;;8351698;28;20256;-69
2022/09/09 07:34:43;;;;;;;1.90;0.93;;;20.10;99.90;;;;;;8346711;28;20224;-70
2022/09/09 07:39:08;;;;;;;3.00;0.80;;;20.40;99.90;;;;;;8347835;28;20185;-68
2022/09/09 07:43:09;;;;;;;2.83;0.80;;;20.60;99.90;;;;;;8346134;28;20189;-69
2022/09/09 07:47:12;;;;;;;2.43;0.70;;;20.80;99.90;;;;;;8348905;28;20301;-69
2022/09/09 07:51:19;;;;;;;1.67;0.60;;;20.80;56.60;;;;;;8346733;28;20214;-68
2022/09/09 07:55:21;;;;;;;2.30;0.70;;;20.80;48.70;;;;;;8351075;28;20186;-68
2022/09/09 07:59:22;;;;;;;3.63;1.17;;;20.90;56.50;;;;;;8347654;28;20186;-69
2022/09/09 08:03:23;;;;;;;1.37;0.67;;;21.00;37.60;;;;;;8344601;28;20189;-68
2022/09/09 08:07:24;;;;;;;1.63;0.73;;;21.10;63.50;;;;;;8349683;28;20217;-68
2022/09/09 08:11:27;;;;;;;1.37;0.57;;;21.20;58.10;;;;;;8347903;28;20221;-68
2022/09/09 08:15:30;;;;;;;1.80;0.70;;;21.10;23.70;;;;;;8344369;28;20551;-68
2022/09/09 08:19:35;;;;;;;2.73;0.60;;;21.20;23.60;;;;;;8346562;28;20265;-69
2022/09/09 08:23:36;;;;;;;2.43;0.60;;;21.00;15.60;;;;;;8346298;28;20276;-68
2022/09/09 08:27:37;;;;;;;3.10;0.60;;;21.10;27.60;;;;;;8346697;28;20196;-68
2022/09/09 08:31:40;;;;;;;1.23;0.40;;;21.30;9.20;;;;;;8349818;28;20210;-68
2022/09/09 08:35:50;;;;;;;1.93;0.70;;;21.40;16.00;;;;;;8357159;28;20189;-68
2022/09/09 08:39:51;;;;;;;1.90;0.57;;;21.70;13.30;;;;;;8349901;28;20219;-68
2022/09/09 08:44:06;;;;;;;1.93;0.47;;;22.00;1.00;;;;;;8349834;28;20261;-69
2022/09/09 08:48:58;;;;;;;1.63;0.50;;;21.90;1.00;;;;;;8352866;28;20560;-68
2022/09/09 08:53:01;;;;;;;1.97;0.40;;;22.30;9.60;;;;;;8360201;28;20236;-69
2022/09/09 08:57:09;;;;;;;3.47;1.10;;;22.40;1.00;;;;;;8357047;28;20243;-68
2022/09/09 09:01:16;;;;;;;1.53;0.50;;;22.40;1.00;;;;;;8390321;28;20208;-68
2022/09/09 09:05:32;;;;;;;1.53;0.50;;;22.40;1.00;;;;;;8373778;28;20185;-68
2022/09/09 09:09:43;;;;;;;2.23;0.50;;;22.10;1.00;;;;;;8387361;28;20182;-68
2022/09/09 09:13:51;;;;;;;2.50;0.73;;;22.20;1.00;;;;;;8357252;28;20194;-70
2022/09/09 09:17:52;;;;;;;3.87;0.80;;;22.40;1.00;;;;;;8372336;28;20197;-68
2022/09/09 09:22:22;;;;;;;2.90;0.53;;;22.20;1.00;;;;;;8359687;28;20235;-68
2022/09/09 09:26:30;;;;;;;2.67;0.77;;;22.00;1.00;;;;;;8367432;28;20531;-68
2022/09/09 09:31:03;;;;;;;1.83;0.73;;;22.00;1.00;;;;;;8350818;28;20229;-68
2022/09/09 09:35:12;;;;;;;2.40;0.70;;;22.10;1.00;;;;;;8357568;28;20315;-68
2022/09/09 09:39:28;;;;;;;2.47;0.63;;;22.30;1.00;;;;;;8360793;28;20190;-68
2022/09/09 09:43:31;;;;;;;4.30;0.70;;;22.40;1.00;;;;;;8357825;28;20186;-68
2022/09/09 09:47:32;;;;;;;1.37;0.57;;;22.60;1.00;;;;;;8357064;28;20254;-68
2022/09/09 09:51:35;;;;;;;1.93;0.50;;;22.70;1.00;;;;;;8355555;28;20209;-68
2022/09/09 09:55:44;;;;;;;1.83;0.60;;;22.90;1.00;;;;;;8359353;28;20173;-68
2022/09/09 09:59:46;;;;;;;1.90;0.40;;;23.00;1.00;;;;;;8353909;28;20224;-68
2022/09/09 10:03:52;;;;;;;1.93;0.40;;;23.00;1.00;;;;;;8348621;28;20380;-68
2022/09/09 10:08:09;;;;;;;1.30;0.43;;;23.00;1.00;;;;;;8352770;28;20188;-68
2022/09/09 10:12:30;;;;;;;1.60;0.57;;;23.10;1.00;;;;;;8345220;28;20305;-68
2022/09/09 10:16:40;;;;;;;3.50;0.40;;;23.20;1.00;;;;;;8341591;28;20186;-68
2022/09/09 10:21:02;;;;;;;2.40;0.50;;;23.40;1.00;;;;;;8352632;28;20206;-68
2022/09/09 10:25:23;;;;;;;2.73;0.50;;;23.50;1.00;;;;;;8350577;28;20201;-68
2022/09/09 10:30:08;;;;;;;1.40;0.40;;;23.50;1.00;;;;;;8384216;28;20301;-69
2022/09/09 10:34:16;;;;;;;1.47;0.40;;;23.80;1.00;;;;;;8350845;28;20221;-67
2022/09/09 10:38:23;;;;;;;1.10;0.50;;;23.70;1.00;;;;;;8351160;28;20580;-68
2022/09/09 10:42:29;;;;;;;1.90;0.33;;;23.60;1.00;;;;;;8348861;28;20170;-67
2022/09/09 10:46:49;;;;;;;1.90;0.60;;;23.90;1.00;;;;;;8336548;28;20212;-70
2022/09/09 10:51:16;;;;;;;2.97;0.53;;;23.80;1.00;;;;;;8347375;28;20194;-68
2022/09/09 10:55:22;;;;;;;3.00;0.50;;;24.00;1.00;;;;;;8345126;28;20190;-66
2022/09/09 10:59:33;;;;;;;1.13;0.30;;;24.50;1.00;;;;;;8350705;28;20189;-70
2022/09/09 11:03:39;;;;;;;2.23;0.60;;;24.80;1.00;;;;;;8347182;28;20178;-66
2022/09/09 11:07:52;;;;;;;0.95;0.50;;;24.60;1.00;;;;;;8353641;28;20177;-66
2022/09/09 11:11:55;;;;;;;2.20;0.32;;;24.90;1.00;;;;;;8348215;28;20213;-65
2022/09/09 11:16:18;;;;;;;2.28;0.50;;;25.20;1.00;;;;;;8346407;28;20260;-66
2022/09/09 11:20:19;;;;;;;2.05;0.50;;;25.20;1.00;;;;;;8352771;28;20190;-65
2022/09/09 11:24:35;;;;;;;1.52;0.40;;;25.00;1.00;;;;;;8349566;28;20181;-66
2022/09/09 11:28:53;;;;;;;1.35;0.60;;;25.20;1.00;;;;;;8349614;28;20182;-66
2022/09/09 11:33:09;;;;;;;2.55;0.50;;;24.80;1.00;;;;;;8346747;28;20217;-66
2022/09/09 11:37:18;;;;;;;2.78;0.63;;;24.90;1.00;;;;;;8348709;28;20178;-66
2022/09/09 11:41:21;;;;;;;3.85;0.70;;;25.30;1.00;;;;;;8349159;28;20556;-67
2022/09/09 11:45:29;;;;;;;1.00;0.45;;;25.70;1.00;;;;;;8351712;28;20174;-65
2022/09/09 11:49:42;;;;;;;1.88;0.50;;;25.60;1.00;;;;;;8337954;28;20190;-66
2022/09/09 11:54:02;;;;;;;3.75;0.70;;;25.30;1.00;;;;;;8352567;28;20216;-66
2022/09/09 11:58:13;;;;;;;1.42;0.50;;;25.20;1.00;;;;;;8349017;28;20196;-66
2022/09/09 12:02:23;;;;;;;1.85;0.70;;;25.10;1.00;;;;;;8351208;28;20186;-65
2022/09/09 12:06:46;;;;;;;1.40;0.50;;;25.40;1.00;;;;;;8346177;28;20177;-65
2022/09/09 12:10:56;;;;;;;5.60;0.77;;;25.40;1.00;;;;;;8337677;28;20205;-66
2022/09/09 12:15:01;;;;;;;1.58;0.70;;;25.40;1.00;;;;;;8346993;28;20205;-66
2022/09/09 12:19:14;;;;;;;1.13;0.55;;;25.70;1.00;;;;;;8346980;28;20193;-66
2022/09/09 12:23:36;;;;;;;1.63;0.65;;;25.80;1.00;;;;;;8347567;28;20194;-66
2022/09/09 12:27:47;;;;;;;2.72;0.90;;;26.20;1.00;;;;;;8346081;28;20178;-67
2022/09/09 12:31:56;;;;;;;1.88;0.60;;;26.20;1.00;;;;;;8353974;28;20220;-66
2022/09/09 12:36:00;;;;;;;2.20;0.57;;;26.20;1.00;;;;;;8363157;28;20192;-66
2022/09/09 12:40:04;;;;;;;4.60;0.50;;;25.10;1.00;;;;;;8364532;28;20182;-64
2022/09/09 12:44:08;;;;;;;0.70;0.50;;;22.70;1.00;;;;;;8343538;28;20304;-68
2022/09/09 12:48:11;;;;;;;2.40;0.50;;;21.30;1.00;;;;;;8350027;28;20189;-68
2022/09/09 12:52:29;;;;;;;2.03;0.60;;;20.30;9.90;;;;;;8346000;28;20217;-67
2022/09/09 12:56:32;;;;;;;1.90;0.47;;;19.50;99.90;;;;;;8337023;28;20188;-69
2022/09/09 13:00:34;;;;;;;2.30;0.60;;;19.30;99.90;;;;;;8347417;28;20188;-67
2022/09/09 13:04:35;;;;;;;2.63;0.50;;;19.30;99.90;;;;;;8336700;28;20206;-68
2022/09/09 13:08:36;;;;;;;0.60;0.27;;;19.70;99.90;;;;;;8346707;28;20178;-69
2022/09/09 13:12:37;;;;;;;2.17;0.50;;;20.30;82.20;;;;;;8343509;28;20209;-68
2022/09/09 13:16:38;;;;;;;1.17;0.43;;;20.40;70.80;;;;;;8343988;28;20175;-68
2022/09/09 13:20:47;;;;;;;1.07;0.40;;;20.70;94.10;;;;;;8343896;28;20201;-68
2022/09/09 13:24:58;;;;;;;0.57;0.30;;;20.90;17.40;;;;;;8356332;28;20182;-69
2022/09/09 13:29:18;;;;;;;1.17;0.20;;;20.80;9.40;;;;;;8344469;28;20186;-68
2022/09/09 13:33:22;;;;;;;2.67;1.30;;;20.70;27.80;;;;;;8347669;28;20225;-68
2022/09/09 13:37:31;;;;;;;1.83;0.87;;;21.00;11.20;;;;;;8353371;28;20185;-68
2022/09/09 13:41:46;;;;;;;0.80;0.40;;;21.40;1.00;;;;;;8350393;28;20193;-68
2022/09/09 13:46:01;;;;;;;1.00;0.40;;;21.70;1.00;;;;;;8349249;28;20260;-69
2022/09/09 13:50:20;;;;;;;2.97;0.40;;;21.90;1.00;;;;;;8355365;28;20189;-68
2022/09/09 13:54:22;;;;;;;2.67;0.60;;;22.10;1.00;;;;;;8353407;28;20182;-69
2022/09/09 13:58:24;;;;;;;1.43;0.33;;;22.30;1.00;;;;;;8348132;28;20185;-69
2022/09/09 14:02:25;;;;;;;1.37;0.30;;;22.70;1.00;;;;;;8350062;28;20192;-68
2022/09/09 14:06:27;;;;;;;1.07;0.43;;;22.90;1.00;;;;;;8344181;28;20178;-68
2022/09/09 14:10:28;;;;;;;1.43;0.50;;;22.60;1.00;;;;;;8347040;28;20193;-68
2022/09/09 14:14:28;;;;;;;1.13;0.40;;;22.50;1.00;;;;;;8348888;28;20193;-68
2022/09/09 14:18:29;;;;;;;0.70;0.50;;;22.50;1.00;;;;;;8350938;28;20200;-68
2022/09/09 14:22:30;;;;;;;0.70;0.47;;;22.50;1.00;;;;;;8356143;28;20257;-68
2022/09/09 14:26:32;;;;;;;1.33;0.40;;;22.60;1.00;;;;;;8349883;28;20197;-68
2022/09/09 14:30:32;;;;;;;0.60;0.20;;;22.70;1.00;;;;;;8366317;28;20198;-68
2022/09/09 14:34:33;;;;;;;0.60;0.30;;;22.80;1.00;;;;;;8385062;28;20232;-68
2022/09/09 14:38:39;;;;;;;1.33;0.20;;;22.90;1.00;;;;;;8351560;28;20178;-68
2022/09/09 14:42:41;;;;;;;2.43;0.30;;;23.10;1.00;;;;;;8350610;28;20178;-68
2022/09/09 14:46:45;;;;;;;0.83;0.20;;;23.20;1.00;;;;;;8347539;28;20174;-68
2022/09/09 14:50:45;;;;;;;0.93;0.30;;;23.20;1.00;;;;;;8352040;28;20300;-68
2022/09/09 14:54:46;;;;;;;1.03;0.20;;;23.00;1.00;;;;;;8348046;28;20185;-68
2022/09/09 14:58:48;;;;;;;3.33;0.70;;;22.90;1.00;;;;;;8350688;28;20182;-68
2022/09/09 15:02:52;;;;;;;1.67;0.70;;;22.80;1.00;;;;;;8349433;28;20178;-68
2022/09/09 15:06:53;;;;;;;1.07;0.30;;;22.80;1.00;;;;;;8358883;28;20277;-68
2022/09/09 15:11:05;;;;;;;2.97;0.43;;;22.90;1.00;;;;;;8347733;28;20209;-68
2022/09/09 15:15:06;;;;;;;0.40;0.30;;;23.00;1.00;;;;;;8350848;28;20186;-68
2022/09/09 15:19:07;;;;;;;0.60;0.40;;;23.00;1.00;;;;;;8348282;28;20177;-68
2022/09/09 15:23:08;;;;;;;0.73;0.43;;;22.80;1.00;;;;;;8346600;28;20296;-68
2022/09/09 15:27:09;;;;;;;0.90;0.60;;;22.50;1.00;;;;;;8356656;28;20182;-68
2022/09/09 15:31:21;;;;;;;1.27;0.70;;;22.40;1.00;;;;;;8346606;28;20206;-68
2022/09/09 15:35:21;;;;;;;3.57;0.67;;;22.30;1.00;;;;;;8348871;28;20189;-67
2022/09/09 15:39:22;;;;;;;2.87;1.00;;;22.00;1.00;;;;;;8348320;28;20185;-68
2022/09/09 15:43:23;;;;;;;0.80;0.40;;;21.70;1.00;;;;;;8349621;28;20185;-68
2022/09/09 15:47:24;;;;;;;1.53;0.50;;;21.50;2.80;;;;;;8354123;28;20189;-70
2022/09/09 15:51:25;;;;;;;0.63;0.40;;;21.40;24.20;;;;;;8355088;28;20206;-68
2022/09/09 15:55:26;;;;;;;0.50;0.30;;;21.30;31.00;;;;;;8343864;28;20178;-68
2022/09/09 15:59:29;;;;;;;1.33;0.50;;;21.30;46.30;;;;;;8348655;28;20182;-68
2022/09/09 16:03:38;;;;;;;1.10;0.50;;;21.30;50.50;;;;;;8339346;28;20193;-68
2022/09/09 16:07:39;;;;;;;1.10;0.80;;;21.30;57.30;;;;;;8342768;28;20228;-69
2022/09/09 16:11:40;;;;;;;1.67;1.10;;;21.10;99.90;;;;;;8338434;28;20206;-68
2022/09/09 16:15:40;;;;;;;1.33;0.70;;;20.70;99.90;;;;;;8350190;28;20178;-68
2022/09/09 16:19:41;;;;;;;2.63;0.80;;;20.20;1.00;;;;;;8346888;28;20193;-68
2022/09/09 16:23:43;;;;;;;1.00;0.53;;;19.80;99.90;;;;;;8349736;28;20208;-68
2022/09/09 16:27:44;;;;;;;1.53;0.73;;;19.50;99.90;;;;;;8348292;28;20209;-68
2022/09/09 16:31:46;;;;;;;1.93;0.90;;;19.40;1.00;;;;;;8350459;28;20213;-68
2022/09/09 16:35:48;;;;;;;1.30;0.70;;;19.40;1.00;;;;;;8379335;28;20182;-67
2022/09/09 16:39:50;;;;;;;1.47;0.70;;;19.30;99.90;;;;;;8347958;28;20265;-68
2022/09/09 16:44:02;;;;;;;2.07;0.90;;;19.30;99.90;;;;;;8346193;28;20184;-69
2022/09/09 16:48:03;;;;;;;1.40;0.77;;;19.40;99.90;;;;;;8346150;28;20185;-68
2022/09/09 16:52:04;;;;;;;4.43;1.77;;;19.40;99.90;;;;;;8346141;28;20562;-68
2022/09/09 16:56:06;;;;;;;2.93;1.10;;;19.30;1.00;;;;;;8348853;28;20291;-67
2022/09/09 17:00:08;;;;;;;3.63;1.60;;;19.20;1.00;;;;;;8367323;28;20185;-67
2022/09/09 17:04:20;;;;;;;4.60;2.00;;;19.10;1.00;;;;;;8345639;28;20209;-67
2022/09/09 17:08:21;;;;;;;1.33;0.80;;;19.00;1.00;;;;;;8366070;28;20279;-68
2022/09/09 17:12:22;;;;;;;0.90;0.80;;;19.00;1.00;;;;;;8371376;28;20311;-69
2022/09/09 17:16:27;;;;;;;3.27;0.87;;;18.90;1.00;;;;;;8353290;28;20532;-67
2022/09/09 17:20:27;;;;;;;12.00;1.37;;;18.60;1.00;;;;;;8354824;28;20212;-68
2022/09/09 17:24:29;;;;;;;3.23;0.90;;;18.00;99.90;;;;;;8356623;28;20182;-67
2022/09/09 17:28:31;;;;;;;20.03;6.20;;;17.10;99.90;;;;;;8352119;28;20273;-68
2022/09/09 17:32:31;;;;;;;6.53;2.90;;;16.60;99.90;;;;;;8351732;28;20236;-67
2022/09/09 17:36:36;;;;;;;3.77;1.50;;;16.40;99.90;;;;;;8354398;28;20177;-66
2022/09/09 17:40:37;;;;;;;2.97;1.40;;;16.40;1.00;;;;;;8355209;28;20269;-67
2022/09/09 17:44:38;;;;;;;2.47;1.13;;;16.40;99.90;;;;;;8353880;28;20174;-67
2022/09/09 17:48:40;;;;;;;2.30;0.93;;;16.40;99.90;;;;;;8353973;28;20181;-69
2022/09/09 17:52:41;;;;;;;2.00;1.10;;;16.40;99.90;;;;;;8352917;28;20210;-66
2022/09/09 17:56:43;;;;;;;2.20;1.27;;;16.40;99.90;;;;;;8353149;28;20273;-66
2022/09/09 18:00:50;;;;;;;6.07;1.03;;;16.40;1.00;;;;;;8369417;28;20193;-66
2022/09/09 18:04:51;;;;;;;4.23;1.30;;;16.20;1.00;;;;;;8350174;28;20185;-67
2022/09/09 18:08:55;;;;;;;4.13;1.27;;;16.10;1.00;;;;;;8351737;28;20193;-67
2022/09/09 18:12:56;;;;;;;2.10;1.10;;;16.00;99.90;;;;;;8349676;28;20616;-67
2022/09/09 18:16:59;;;;;;;2.43;1.20;;;16.10;99.90;;;;;;8382627;28;20188;-67
2022/09/09 18:21:06;;;;;;;3.23;1.50;;;16.00;14.50;;;;;;8346304;28;20201;-67
2022/09/09 18:25:07;;;;;;;3.97;1.60;;;16.00;99.90;;;;;;8351606;28;20190;-67
2022/09/09 18:29:11;;;;;;;6.73;1.33;;;15.90;99.90;;;;;;8347708;28;20182;-68
2022/09/09 18:33:14;;;;;;;1.30;1.00;;;15.80;99.90;;;;;;8383408;28;20301;-68
2022/09/09 18:37:15;;;;;;;1.47;1.03;;;15.80;99.90;;;;;;8331349;28;20210;-67
2022/09/09 18:41:21;;;;;;;2.13;1.23;;;15.70;99.90;;;;;;8351389;28;20190;-68
2022/09/09 18:45:22;;;;;;;2.47;1.40;;;15.60;99.90;;;;;;8341182;28;20194;-67
2022/09/09 18:49:25;;;;;;;1.73;1.43;;;15.60;99.90;;;;;;8350811;28;20255;-67
2022/09/09 18:53:26;;;;;;;1.57;1.20;;;15.50;99.90;;;;;;8349341;28;20212;-68
2022/09/09 18:57:28;;;;;;;1.63;0.80;;;15.30;99.90;;;;;;8350318;28;20178;-66
2022/09/09 19:01:29;;;;;;;1.67;0.90;;;15.20;99.90;;;;;;8370169;28;20589;-67
2022/09/09 19:05:30;;;;;;;1.30;1.00;;;15.10;99.90;;;;;;8346898;28;20181;-67
2022/09/09 19:09:32;;;;;;;1.53;1.13;;;15.00;99.90;;;;;;8348711;28;20188;-68
2022/09/09 19:13:36;;;;;;;1.40;1.20;;;14.80;99.90;;;;;;8348577;28;20213;-67
2022/09/09 19:17:37;;;;;;;1.80;1.30;;;14.70;99.90;;;;;;8347438;28;20181;-67
2022/09/09 19:21:43;;;;;;;2.17;1.67;;;14.60;99.90;;;;;;8349034;28;20201;-66
2022/09/09 19:25:45;;;;;;;3.27;1.33;;;14.60;99.90;;;;;;8352042;28;20178;-67
2022/09/09 19:29:47;;;;;;;4.73;2.27;;;14.60;99.90;;;;;;8350901;28;20182;-67
2022/09/09 19:33:49;;;;;;;2.13;1.90;;;14.60;99.90;;;;;;8347087;28;20208;-67
2022/09/09 19:37:51;;;;;;;1.90;1.70;;;14.50;99.90;;;;;;8349324;28;20232;-67
2022/09/09 19:41:52;;;;;;;2.33;1.80;;;14.50;99.90;;;;;;8347926;28;20185;-67
2022/09/09 19:46:01;;;;;;;2.47;1.60;;;14.60;99.90;;;;;;8347619;28;20448;-67
2022/09/09 19:50:04;;;;;;;2.83;1.47;;;14.60;99.90;;;;;;8348412;28;20192;-67
2022/09/09 19:54:09;;;;;;;2.07;1.53;;;14.70;99.90;;;;;;8349147;28;20177;-67
2022/09/09 19:58:10;;;;;;;1.23;1.13;;;14.80;99.90;;;;;;8348855;28;20174;-69
2022/09/09 20:02:16;;;;;;;1.70;1.50;;;14.90;99.90;;;;;;8346128;28;20231;-67
2022/09/09 20:06:20;;;;;;;3.10;1.60;;;14.90;99.90;;;;;;8346592;28;20174;-68
2022/09/09 20:10:22;;;;;;;1.73;1.30;;;15.00;99.90;;;;;;8347199;28;20210;-67
2022/09/09 20:14:23;;;;;;;1.90;1.40;;;15.00;99.90;;;;;;8346552;28;20216;-67
2022/09/09 20:18:26;;;;;;;2.37;1.40;;;15.10;99.90;;;;;;8351519;28;20216;-67
2022/09/09 20:22:27;;;;;;;3.33;1.53;;;15.10;99.90;;;;;;8348429;28;20200;-68
2022/09/09 20:26:34;;;;;;;5.50;1.90;;;15.10;99.90;;;;;;8350622;28;20182;-67
2022/09/09 20:30:37;;;;;;;2.97;1.93;;;15.20;99.90;;;;;;8337840;28;20217;-67
2022/09/09 20:34:37;;;;;;;2.33;1.43;;;15.30;99.90;;;;;;8348398;28;20181;-67
2022/09/09 20:38:58;;;;;;;1.53;1.33;;;15.40;99.90;;;;;;8352435;28;20188;-67
2022/09/09 20:43:00;;;;;;;4.20;2.30;;;15.40;99.90;;;;;;8341508;28;20263;-66
2022/09/09 20:47:05;;;;;;;4.60;2.80;;;15.30;99.90;;;;;;8347316;28;20242;-67
2022/09/09 20:51:08;;;;;;;5.30;2.83;;;15.20;99.90;;;;;;8346421;28;20214;-67
2022/09/09 20:55:09;;;;;;;3.43;2.37;;;15.40;99.90;;;;;;8348529;28;20182;-67
2022/09/09 20:59:19;;;;;;;2.83;2.10;;;15.30;99.90;;;;;;8346278;28;20185;-68
2022/09/09 21:03:20;;;;;;;3.20;1.90;;;15.30;99.90;;;;;;8345987;28;20182;-68
2022/09/09 21:07:21;;;;;;;3.23;1.90;;;15.20;99.90;;;;;;8351044;28;20185;-67
2022/09/09 21:11:22;;;;;;;2.53;1.73;;;15.10;99.90;;;;;;8344684;28;20217;-68
2022/09/09 21:15:23;;;;;;;1.87;1.37;;;15.00;99.90;;;;;;8336672;28;20239;-68
2022/09/09 21:19:24;;;;;;;4.37;2.00;;;15.00;99.90;;;;;;8346241;28;20174;-68
2022/09/09 21:23:26;;;;;;;2.73;1.80;;;14.90;99.90;;;;;;8343916;28;20197;-68